sensor_id;sensor_type;location;lat;lon;timestamp;temperature;humidity
19279;DHT22;9773;47.062;15.446;2022-11-04T00:01:50;11.80;99.90
19279;DHT22;9773;47.062;15.446;2022-11-04T00:04:26;11.70;99.90
19279;DHT22;9773;47.062;15.446;2022-11-04T00:06:55;11.70;99.90
19279;DHT22;9773;47.062;15.446;2022-11-04T00:10:00;11.80;99.90
19279;DHT22;9773;47.062;15.446;2022-11-04T00:12:29;11.70;99.90
19279;DHT22;9773;47.062;15.446;2022-11-04T00:14:59;11.70;99.90
19279;DHT22;9773;47.062;15.446;2022-11-04T00:17:49;11.60;99.90
19279;DHT22;9773;47.062;15.446;2022-11-04T00:20:16;11.70;99.90
19279;DHT22;9773;47.062;15.446;2022-11-04T00:23:06;11.70;99.90
19279;DHT22;9773;47.062;15.446;2022-11-04T00:25:50;11.70;99.90
19279;DHT22;9773;47.062;15.446;2022-11-04T00:28:57;11.80;99.90
19279;DHT22;9773;47.062;15.446;2022-11-04T00:31:26;11.80;99.90
19279;DHT22;9773;47.062;15.446;2022-11-04T00:34:10;11.90;99.90
19279;DHT22;9773;47.062;15.446;2022-11-04T00:36:37;11.90;99.90
19279;DHT22;9773;47.062;15.446;2022-11-04T00:39:21;11.80;99.90
19279;DHT22;9773;47.062;15.446;2022-11-04T00:41:49;11.90;99.90
19279;DHT22;9773;47.062;15.446;2022-11-04T00:44:17;11.80;99.90
19279;DHT22;9773;47.062;15.446;2022-11-04T00:46:48;11.80;99.90
19279;DHT22;9773;47.062;15.446;2022-11-04T00:49:14;11.80;99.90
19279;DHT22;9773;47.062;15.446;2022-11-04T00:51:41;11.80;99.90
19279;DHT22;9773;47.062;15.446;2022-11-04T00:54:14;11.80;99.90
19279;DHT22;9773;47.062;15.446;2022-11-04T00:56:45;11.90;99.90
19279;DHT22;9773;47.062;15.446;2022-11-04T00:59:13;11.90;99.90
19279;DHT22;9773;47.062;15.446;2022-11-04T01:01:41;11.80;99.90
19279;DHT22;9773;47.062;15.446;2022-11-04T01:04:08;11.90;99.90
19279;DHT22;9773;47.062;15.446;2022-11-04T01:06:41;11.90;99.90
19279;DHT22;9773;47.062;15.446;2022-11-04T01:09:30;11.90;99.90
19279;DHT22;9773;47.062;15.446;2022-11-04T01:11:58;11.80;99.90
19279;DHT22;9773;47.062;15.446;2022-11-04T01:14:28;11.80;99.90
19279;DHT22;9773;47.062;15.446;2022-11-04T01:17:00;11.80;99.90
19279;DHT22;9773;47.062;15.446;2022-11-04T01:19:27;11.80;99.90
19279;DHT22;9773;47.062;15.446;2022-11-04T01:21:59;11.90;99.90
19279;DHT22;9773;47.062;15.446;2022-11-04T01:24:28;11.90;99.90
19279;DHT22;9773;47.062;15.446;2022-11-04T01:26:58;11.90;99.90
19279;DHT22;9773;47.062;15.446;2022-11-04T01:29:31;11.90;99.90
19279;DHT22;9773;47.062;15.446;2022-11-04T01:32:04;11.90;99.90
19279;DHT22;9773;47.062;15.446;2022-11-04T01:34:31;11.90;99.90
19279;DHT22;9773;47.062;15.446;2022-11-04T01:36:57;12.10;99.90
19279;DHT22;9773;47.062;15.446;2022-11-04T01:39:31;11.90;99.90
19279;DHT22;9773;47.062;15.446;2022-11-04T01:41:58;11.90;99.90
19279;DHT22;9773;47.062;15.446;2022-11-04T01:44:45;12.00;99.90
19279;DHT22;9773;47.062;15.446;2022-11-04T01:47:39;12.00;99.90
19279;DHT22;9773;47.062;15.446;2022-11-04T01:50:19;12.00;99.90
19279;DHT22;9773;47.062;15.446;2022-11-04T01:53:16;11.90;99.90
19279;DHT22;9773;47.062;15.446;2022-11-04T01:56:11;11.90;99.90
19279;DHT22;9773;47.062;15.446;2022-11-04T02:03:03;12.00;99.90
19279;DHT22;9773;47.062;15.446;2022-11-04T02:05:31;12.00;99.90
19279;DHT22;9773;47.062;15.446;2022-11-04T02:08:02;11.90;99.90
19279;DHT22;9773;47.062;15.446;2022-11-04T02:11:11;12.00;99.90
19279;DHT22;9773;47.062;15.446;2022-11-04T02:14:13;12.00;99.90
19279;DHT22;9773;47.062;15.446;2022-11-04T02:16:47;11.90;99.90
19279;DHT22;9773;47.062;15.446;2022-11-04T02:25:19;12.00;99.90
19279;DHT22;9773;47.062;15.446;2022-11-04T02:47:36;12.10;99.90
19279;DHT22;9773;47.062;15.446;2022-11-04T02:50:30;12.10;99.90
19279;DHT22;9773;47.062;15.446;2022-11-04T02:53:14;12.20;99.90
19279;DHT22;9773;47.062;15.446;2022-11-04T02:55:51;12.30;99.90
19279;DHT22;9773;47.062;15.446;2022-11-04T02:58:26;12.20;99.90
19279;DHT22;9773;47.062;15.446;2022-11-04T03:01:06;12.20;99.90
19279;DHT22;9773;47.062;15.446;2022-11-04T03:03:41;12.20;99.90
19279;DHT22;9773;47.062;15.446;2022-11-04T03:06:18;12.30;99.90
19279;DHT22;9773;47.062;15.446;2022-11-04T03:09:00;12.30;99.90
19279;DHT22;9773;47.062;15.446;2022-11-04T03:11:31;12.30;99.90
19279;DHT22;9773;47.062;15.446;2022-11-04T03:14:03;12.20;99.90
19279;DHT22;9773;47.062;15.446;2022-11-04T03:19:28;12.20;99.90
19279;DHT22;9773;47.062;15.446;2022-11-04T03:22:19;12.20;99.90
19279;DHT22;9773;47.062;15.446;2022-11-04T03:25:10;12.20;99.90
19279;DHT22;9773;47.062;15.446;2022-11-04T03:30:54;12.20;99.90
19279;DHT22;9773;47.062;15.446;2022-11-04T03:33:47;12.30;99.90
19279;DHT22;9773;47.062;15.446;2022-11-04T03:36:16;12.30;99.90
19279;DHT22;9773;47.062;15.446;2022-11-04T03:38:46;12.40;99.90
19279;DHT22;9773;47.062;15.446;2022-11-04T03:41:21;12.20;99.90
19279;DHT22;9773;47.062;15.446;2022-11-04T03:43:58;12.30;99.90
19279;DHT22;9773;47.062;15.446;2022-11-04T03:46:27;12.20;99.90
19279;DHT22;9773;47.062;15.446;2022-11-04T03:49:04;12.30;99.90
19279;DHT22;9773;47.062;15.446;2022-11-04T03:51:32;12.30;99.90
19279;DHT22;9773;47.062;15.446;2022-11-04T03:54:12;12.30;99.90
19279;DHT22;9773;47.062;15.446;2022-11-04T04:00:15;12.40;99.90
19279;DHT22;9773;47.062;15.446;2022-11-04T04:02:50;12.40;99.90
19279;DHT22;9773;47.062;15.446;2022-11-04T04:06:23;12.40;99.90
19279;DHT22;9773;47.062;15.446;2022-11-04T04:08:36;12.40;99.90
19279;DHT22;9773;47.062;15.446;2022-11-04T04:14:05;12.50;99.90
19279;DHT22;9773;47.062;15.446;2022-11-04T04:19:15;12.50;99.90
19279;DHT22;9773;47.062;15.446;2022-11-04T04:21:54;12.50;99.90
19279;DHT22;9773;47.062;15.446;2022-11-04T04:24:34;12.50;99.90
19279;DHT22;9773;47.062;15.446;2022-11-04T04:27:40;12.40;99.90
19279;DHT22;9773;47.062;15.446;2022-11-04T04:30:32;12.50;99.90
19279;DHT22;9773;47.062;15.446;2022-11-04T04:33:42;12.50;99.90
19279;DHT22;9773;47.062;15.446;2022-11-04T04:36:30;12.40;99.90
19279;DHT22;9773;47.062;15.446;2022-11-04T04:39:08;12.50;99.90
19279;DHT22;9773;47.062;15.446;2022-11-04T04:42:05;12.60;99.90
19279;DHT22;9773;47.062;15.446;2022-11-04T04:44:51;12.50;99.90
19279;DHT22;9773;47.062;15.446;2022-11-04T04:47:41;12.50;99.90
19279;DHT22;9773;47.062;15.446;2022-11-04T04:50:18;12.50;99.90
19279;DHT22;9773;47.062;15.446;2022-11-04T04:52:49;12.50;99.90
19279;DHT22;9773;47.062;15.446;2022-11-04T04:55:21;12.50;99.90
19279;DHT22;9773;47.062;15.446;2022-11-04T04:58:08;12.40;99.90
19279;DHT22;9773;47.062;15.446;2022-11-04T05:01:21;12.50;99.90
19279;DHT22;9773;47.062;15.446;2022-11-04T05:04:08;12.50;99.90
19279;DHT22;9773;47.062;15.446;2022-11-04T05:06:44;12.40;99.90
19279;DHT22;9773;47.062;15.446;2022-11-04T05:09:13;12.40;99.90
19279;DHT22;9773;47.062;15.446;2022-11-04T05:11:44;12.50;99.90
19279;DHT22;9773;47.062;15.446;2022-11-04T05:14:32;12.50;99.90
19279;DHT22;9773;47.062;15.446;2022-11-04T05:17:03;12.50;99.90
19279;DHT22;9773;47.062;15.446;2022-11-04T05:19:30;12.50;99.90
19279;DHT22;9773;47.062;15.446;2022-11-04T05:25:42;12.50;99.90
19279;DHT22;9773;47.062;15.446;2022-11-04T05:28:08;12.60;99.90
19279;DHT22;9773;47.062;15.446;2022-11-04T05:30:47;12.60;99.90
19279;DHT22;9773;47.062;15.446;2022-11-04T05:33:25;12.60;99.90
19279;DHT22;9773;47.062;15.446;2022-11-04T05:35:54;12.70;99.90
19279;DHT22;9773;47.062;15.446;2022-11-04T05:38:31;12.70;99.90
19279;DHT22;9773;47.062;15.446;2022-11-04T05:41:07;12.70;99.90
19279;DHT22;9773;47.062;15.446;2022-11-04T05:43:36;12.60;99.90
19279;DHT22;9773;47.062;15.446;2022-11-04T05:46:04;12.70;99.90
19279;DHT22;9773;47.062;15.446;2022-11-04T05:48:30;12.70;99.90
19279;DHT22;9773;47.062;15.446;2022-11-04T05:50:57;12.90;99.90
19279;DHT22;9773;47.062;15.446;2022-11-04T05:56:15;12.80;99.90
19279;DHT22;9773;47.062;15.446;2022-11-04T05:59:03;12.80;99.90
19279;DHT22;9773;47.062;15.446;2022-11-04T06:01:40;12.70;99.90
19279;DHT22;9773;47.062;15.446;2022-11-04T06:04:21;12.80;99.90
19279;DHT22;9773;47.062;15.446;2022-11-04T06:06:53;12.90;99.90
19279;DHT22;9773;47.062;15.446;2022-11-04T06:09:23;12.90;99.90
19279;DHT22;9773;47.062;15.446;2022-11-04T06:12:18;12.90;99.90
19279;DHT22;9773;47.062;15.446;2022-11-04T06:14:50;12.90;99.90
19279;DHT22;9773;47.062;15.446;2022-11-04T06:17:19;12.80;99.90
19279;DHT22;9773;47.062;15.446;2022-11-04T06:19:51;12.70;99.90
19279;DHT22;9773;47.062;15.446;2022-11-04T06:22:20;12.70;99.90
19279;DHT22;9773;47.062;15.446;2022-11-04T06:24:46;12.80;99.90
19279;DHT22;9773;47.062;15.446;2022-11-04T06:27:13;12.80;99.90
19279;DHT22;9773;47.062;15.446;2022-11-04T06:29:40;12.80;99.90
19279;DHT22;9773;47.062;15.446;2022-11-04T06:32:09;12.90;99.90
19279;DHT22;9773;47.062;15.446;2022-11-04T06:34:36;12.90;99.90
19279;DHT22;9773;47.062;15.446;2022-11-04T06:37:02;13.00;99.90
19279;DHT22;9773;47.062;15.446;2022-11-04T06:41:55;13.10;99.90
19279;DHT22;9773;47.062;15.446;2022-11-04T06:44:21;13.10;99.90
19279;DHT22;9773;47.062;15.446;2022-11-04T06:46:47;13.00;99.90
19279;DHT22;9773;47.062;15.446;2022-11-04T06:49:15;13.10;99.90
19279;DHT22;9773;47.062;15.446;2022-11-04T06:51:46;13.10;99.90
19279;DHT22;9773;47.062;15.446;2022-11-04T06:54:30;13.20;99.90
19279;DHT22;9773;47.062;15.446;2022-11-04T06:57:06;13.20;99.90
19279;DHT22;9773;47.062;15.446;2022-11-04T06:59:35;13.10;99.90
19279;DHT22;9773;47.062;15.446;2022-11-04T07:02:02;13.00;99.90
19279;DHT22;9773;47.062;15.446;2022-11-04T07:04:29;13.00;99.90
19279;DHT22;9773;47.062;15.446;2022-11-04T07:06:59;13.10;99.90
19279;DHT22;9773;47.062;15.446;2022-11-04T07:09:27;13.10;99.90
19279;DHT22;9773;47.062;15.446;2022-11-04T07:11:54;13.10;99.90
19279;DHT22;9773;47.062;15.446;2022-11-04T07:14:20;13.00;99.90
19279;DHT22;9773;47.062;15.446;2022-11-04T07:16:49;12.90;99.90
19279;DHT22;9773;47.062;15.446;2022-11-04T07:19:15;13.00;99.90
19279;DHT22;9773;47.062;15.446;2022-11-04T07:21:42;13.10;99.90
19279;DHT22;9773;47.062;15.446;2022-11-04T07:24:08;13.20;99.90
19279;DHT22;9773;47.062;15.446;2022-11-04T07:26:38;13.10;99.90
19279;DHT22;9773;47.062;15.446;2022-11-04T07:29:04;13.10;99.90
19279;DHT22;9773;47.062;15.446;2022-11-04T07:31:31;13.20;99.90
19279;DHT22;9773;47.062;15.446;2022-11-04T07:33:57;13.20;99.90
19279;DHT22;9773;47.062;15.446;2022-11-04T07:36:23;13.30;99.90
19279;DHT22;9773;47.062;15.446;2022-11-04T07:38:49;13.30;99.90
19279;DHT22;9773;47.062;15.446;2022-11-04T07:41:15;13.20;99.90
19279;DHT22;9773;47.062;15.446;2022-11-04T07:43:46;13.10;99.90
19279;DHT22;9773;47.062;15.446;2022-11-04T07:46:12;13.10;99.90
19279;DHT22;9773;47.062;15.446;2022-11-04T07:48:39;13.00;99.90
19279;DHT22;9773;47.062;15.446;2022-11-04T07:51:07;13.00;99.90
19279;DHT22;9773;47.062;15.446;2022-11-04T07:53:34;13.00;99.90
19279;DHT22;9773;47.062;15.446;2022-11-04T07:56:06;13.00;99.90
19279;DHT22;9773;47.062;15.446;2022-11-04T07:58:32;13.00;99.90
19279;DHT22;9773;47.062;15.446;2022-11-04T08:01:10;13.10;99.90
19279;DHT22;9773;47.062;15.446;2022-11-04T08:03:37;13.10;99.90
19279;DHT22;9773;47.062;15.446;2022-11-04T08:06:04;13.10;99.90
19279;DHT22;9773;47.062;15.446;2022-11-04T08:08:30;13.10;99.90
19279;DHT22;9773;47.062;15.446;2022-11-04T08:11:10;13.00;99.90
19279;DHT22;9773;47.062;15.446;2022-11-04T08:13:37;12.90;99.90
19279;DHT22;9773;47.062;15.446;2022-11-04T08:16:06;12.90;99.90
19279;DHT22;9773;47.062;15.446;2022-11-04T08:18:34;13.00;99.90
19279;DHT22;9773;47.062;15.446;2022-11-04T08:21:01;13.00;99.90
19279;DHT22;9773;47.062;15.446;2022-11-04T08:23:28;13.00;99.90
19279;DHT22;9773;47.062;15.446;2022-11-04T08:25:55;13.00;99.90
19279;DHT22;9773;47.062;15.446;2022-11-04T08:28:21;12.90;99.90
19279;DHT22;9773;47.062;15.446;2022-11-04T08:31:00;13.00;99.90
19279;DHT22;9773;47.062;15.446;2022-11-04T08:33:28;13.00;99.90
19279;DHT22;9773;47.062;15.446;2022-11-04T08:36:04;13.00;99.90
19279;DHT22;9773;47.062;15.446;2022-11-04T08:38:30;13.00;99.90
19279;DHT22;9773;47.062;15.446;2022-11-04T08:40:59;13.00;99.90
19279;DHT22;9773;47.062;15.446;2022-11-04T08:43:26;13.00;99.90
19279;DHT22;9773;47.062;15.446;2022-11-04T08:45:52;13.00;99.90
19279;DHT22;9773;47.062;15.446;2022-11-04T08:48:18;12.90;99.90
19279;DHT22;9773;47.062;15.446;2022-11-04T08:50:52;12.90;99.90
19279;DHT22;9773;47.062;15.446;2022-11-04T08:53:19;12.90;99.90
19279;DHT22;9773;47.062;15.446;2022-11-04T08:55:46;12.90;99.90
19279;DHT22;9773;47.062;15.446;2022-11-04T08:58:12;13.10;99.90
19279;DHT22;9773;47.062;15.446;2022-11-04T09:00:38;13.10;99.90
19279;DHT22;9773;47.062;15.446;2022-11-04T09:03:04;13.10;99.90
19279;DHT22;9773;47.062;15.446;2022-11-04T09:05:35;13.10;99.90
19279;DHT22;9773;47.062;15.446;2022-11-04T09:08:01;13.10;99.90
19279;DHT22;9773;47.062;15.446;2022-11-04T09:10:29;13.10;99.90
19279;DHT22;9773;47.062;15.446;2022-11-04T09:12:55;13.20;99.90
19279;DHT22;9773;47.062;15.446;2022-11-04T09:15:21;13.20;99.90
19279;DHT22;9773;47.062;15.446;2022-11-04T09:17:47;13.30;99.90
19279;DHT22;9773;47.062;15.446;2022-11-04T09:20:16;13.30;99.90
19279;DHT22;9773;47.062;15.446;2022-11-04T09:22:44;13.30;99.90
19279;DHT22;9773;47.062;15.446;2022-11-04T09:25:10;13.20;99.90
19279;DHT22;9773;47.062;15.446;2022-11-04T09:27:36;13.10;99.90
19279;DHT22;9773;47.062;15.446;2022-11-04T09:30:02;13.10;99.90
19279;DHT22;9773;47.062;15.446;2022-11-04T09:32:28;13.10;99.90
19279;DHT22;9773;47.062;15.446;2022-11-04T09:34:54;13.10;99.90
19279;DHT22;9773;47.062;15.446;2022-11-04T09:37:20;13.10;99.90
19279;DHT22;9773;47.062;15.446;2022-11-04T09:39:46;13.00;99.90
19279;DHT22;9773;47.062;15.446;2022-11-04T09:42:40;13.10;99.90
19279;DHT22;9773;47.062;15.446;2022-11-04T09:45:18;13.20;99.90
19279;DHT22;9773;47.062;15.446;2022-11-04T09:47:50;13.20;99.90
19279;DHT22;9773;47.062;15.446;2022-11-04T09:50:21;13.10;99.90
19279;DHT22;9773;47.062;15.446;2022-11-04T09:52:55;13.20;99.90
19279;DHT22;9773;47.062;15.446;2022-11-04T09:55:37;13.20;99.90
19279;DHT22;9773;47.062;15.446;2022-11-04T09:58:09;13.30;99.90
19279;DHT22;9773;47.062;15.446;2022-11-04T10:00:38;13.30;99.90
19279;DHT22;9773;47.062;15.446;2022-11-04T10:03:28;13.20;99.90
19279;DHT22;9773;47.062;15.446;2022-11-04T10:09:12;13.10;99.90
19279;DHT22;9773;47.062;15.446;2022-11-04T10:25:27;13.10;99.90
19279;DHT22;9773;47.062;15.446;2022-11-04T10:27:54;13.10;99.90
19279;DHT22;9773;47.062;15.446;2022-11-04T10:30:25;13.00;99.90
19279;DHT22;9773;47.062;15.446;2022-11-04T10:33:21;12.90;99.90
19279;DHT22;9773;47.062;15.446;2022-11-04T10:35:53;12.70;99.90
19279;DHT22;9773;47.062;15.446;2022-11-04T10:41:33;12.60;99.90
19279;DHT22;9773;47.062;15.446;2022-11-04T10:44:25;12.50;99.90
19279;DHT22;9773;47.062;15.446;2022-11-04T10:52:49;12.60;99.90
19279;DHT22;9773;47.062;15.446;2022-11-04T10:57:49;12.60;99.90
19279;DHT22;9773;47.062;15.446;2022-11-04T11:00:36;12.60;99.90
19279;DHT22;9773;47.062;15.446;2022-11-04T11:03:29;12.60;99.90
19279;DHT22;9773;47.062;15.446;2022-11-04T11:06:26;12.50;99.90
19279;DHT22;9773;47.062;15.446;2022-11-04T11:09:10;12.50;99.90
19279;DHT22;9773;47.062;15.446;2022-11-04T11:11:48;12.60;99.90
19279;DHT22;9773;47.062;15.446;2022-11-04T11:14:34;12.60;99.90
19279;DHT22;9773;47.062;15.446;2022-11-04T11:19:59;12.60;99.90
19279;DHT22;9773;47.062;15.446;2022-11-04T11:22:38;12.70;99.90
19279;DHT22;9773;47.062;15.446;2022-11-04T11:27:50;12.60;99.90
19279;DHT22;9773;47.062;15.446;2022-11-04T11:33:16;12.70;99.90
19279;DHT22;9773;47.062;15.446;2022-11-04T11:38:26;12.90;99.90
19279;DHT22;9773;47.062;15.446;2022-11-04T11:41:06;12.80;99.90
19279;DHT22;9773;47.062;15.446;2022-11-04T11:43:56;12.70;99.90
19279;DHT22;9773;47.062;15.446;2022-11-04T11:46:36;12.60;99.90
19279;DHT22;9773;47.062;15.446;2022-11-04T11:49:41;12.60;99.90
19279;DHT22;9773;47.062;15.446;2022-11-04T11:52:43;12.60;99.90
19279;DHT22;9773;47.062;15.446;2022-11-04T11:55:42;12.70;99.90
19279;DHT22;9773;47.062;15.446;2022-11-04T11:58:46;12.80;99.90
19279;DHT22;9773;47.062;15.446;2022-11-04T12:01:31;12.80;99.90
19279;DHT22;9773;47.062;15.446;2022-11-04T12:03:59;12.90;99.90
19279;DHT22;9773;47.062;15.446;2022-11-04T12:09:41;12.80;99.90
19279;DHT22;9773;47.062;15.446;2022-11-04T12:18:36;12.90;99.90
19279;DHT22;9773;47.062;15.446;2022-11-04T12:21:14;12.80;99.90
19279;DHT22;9773;47.062;15.446;2022-11-04T12:30:04;12.60;99.90
19279;DHT22;9773;47.062;15.446;2022-11-04T12:41:24;12.70;99.90
19279;DHT22;9773;47.062;15.446;2022-11-04T12:46:52;12.80;99.90
19279;DHT22;9773;47.062;15.446;2022-11-04T12:49:51;12.70;99.90
19279;DHT22;9773;47.062;15.446;2022-11-04T12:52:30;12.70;99.90
19279;DHT22;9773;47.062;15.446;2022-11-04T12:57:58;12.80;99.90
19279;DHT22;9773;47.062;15.446;2022-11-04T13:00:30;12.80;99.90
19279;DHT22;9773;47.062;15.446;2022-11-04T13:03:10;12.80;99.90
19279;DHT22;9773;47.062;15.446;2022-11-04T13:11:12;13.00;99.90
19279;DHT22;9773;47.062;15.446;2022-11-04T13:14:09;13.10;99.90
19279;DHT22;9773;47.062;15.446;2022-11-04T13:16:45;13.10;99.90
19279;DHT22;9773;47.062;15.446;2022-11-04T13:19:57;13.10;99.90
19279;DHT22;9773;47.062;15.446;2022-11-04T13:22:31;13.20;99.90
19279;DHT22;9773;47.062;15.446;2022-11-04T13:25:20;13.20;99.90
19279;DHT22;9773;47.062;15.446;2022-11-04T13:27:49;13.30;99.90
19279;DHT22;9773;47.062;15.446;2022-11-04T13:38:27;13.30;99.90
19279;DHT22;9773;47.062;15.446;2022-11-04T13:43:53;13.30;99.90
19279;DHT22;9773;47.062;15.446;2022-11-04T13:46:26;13.30;99.90
19279;DHT22;9773;47.062;15.446;2022-11-04T13:49:23;13.40;99.90
19279;DHT22;9773;47.062;15.446;2022-11-04T13:52:09;13.30;99.90
19279;DHT22;9773;47.062;15.446;2022-11-04T13:57:26;13.30;99.90
19279;DHT22;9773;47.062;15.446;2022-11-04T14:02:56;12.90;99.90
19279;DHT22;9773;47.062;15.446;2022-11-04T14:08:13;12.50;99.90
19279;DHT22;9773;47.062;15.446;2022-11-04T14:18:53;12.00;99.90
19279;DHT22;9773;47.062;15.446;2022-11-04T14:21:26;11.80;99.90
19279;DHT22;9773;47.062;15.446;2022-11-04T14:24:00;11.70;99.90
19279;DHT22;9773;47.062;15.446;2022-11-04T14:26:45;11.70;99.90
19279;DHT22;9773;47.062;15.446;2022-11-04T14:29:23;11.60;99.90
19279;DHT22;9773;47.062;15.446;2022-11-04T14:31:54;11.50;99.90
19279;DHT22;9773;47.062;15.446;2022-11-04T14:34:37;11.50;99.90
19279;DHT22;9773;47.062;15.446;2022-11-04T14:37:20;11.30;99.90
19279;DHT22;9773;47.062;15.446;2022-11-04T14:39:54;11.20;99.90
19279;DHT22;9773;47.062;15.446;2022-11-04T14:42:49;11.00;99.90
19279;DHT22;9773;47.062;15.446;2022-11-04T14:45:25;11.00;99.90
19279;DHT22;9773;47.062;15.446;2022-11-04T14:47:59;10.80;99.90
19279;DHT22;9773;47.062;15.446;2022-11-04T14:50:31;10.70;99.90
19279;DHT22;9773;47.062;15.446;2022-11-04T14:53:02;10.60;99.90
19279;DHT22;9773;47.062;15.446;2022-11-04T14:55:30;10.60;99.90
19279;DHT22;9773;47.062;15.446;2022-11-04T14:58:25;10.50;99.90
19279;DHT22;9773;47.062;15.446;2022-11-04T15:00:57;10.40;99.90
19279;DHT22;9773;47.062;15.446;2022-11-04T15:03:26;10.50;99.90
19279;DHT22;9773;47.062;15.446;2022-11-04T15:05:58;10.60;99.90
19279;DHT22;9773;47.062;15.446;2022-11-04T15:08:43;10.50;99.90
19279;DHT22;9773;47.062;15.446;2022-11-04T15:11:17;10.50;99.90
19279;DHT22;9773;47.062;15.446;2022-11-04T15:14:22;10.50;99.90
19279;DHT22;9773;47.062;15.446;2022-11-04T15:17:10;10.50;99.90
19279;DHT22;9773;47.062;15.446;2022-11-04T15:20:28;10.50;99.90
19279;DHT22;9773;47.062;15.446;2022-11-04T15:23:03;10.50;99.90
19279;DHT22;9773;47.062;15.446;2022-11-04T15:25:52;10.50;99.90
19279;DHT22;9773;47.062;15.446;2022-11-04T15:28:26;10.50;99.90
19279;DHT22;9773;47.062;15.446;2022-11-04T15:31:30;10.40;99.90
19279;DHT22;9773;47.062;15.446;2022-11-04T15:33:59;10.40;99.90
19279;DHT22;9773;47.062;15.446;2022-11-04T15:36:35;10.30;99.90
19279;DHT22;9773;47.062;15.446;2022-11-04T15:39:06;10.40;99.90
19279;DHT22;9773;47.062;15.446;2022-11-04T15:41:33;10.30;99.90
19279;DHT22;9773;47.062;15.446;2022-11-04T15:44:24;10.30;99.90
19279;DHT22;9773;47.062;15.446;2022-11-04T15:46:56;10.40;99.90
19279;DHT22;9773;47.062;15.446;2022-11-04T15:49:28;10.40;99.90
19279;DHT22;9773;47.062;15.446;2022-11-04T15:52:07;10.30;99.90
19279;DHT22;9773;47.062;15.446;2022-11-04T15:54:38;10.30;99.90
19279;DHT22;9773;47.062;15.446;2022-11-04T15:57:30;10.30;99.90
19279;DHT22;9773;47.062;15.446;2022-11-04T16:02:38;10.20;99.90
19279;DHT22;9773;47.062;15.446;2022-11-04T16:07:46;10.10;99.90
19279;DHT22;9773;47.062;15.446;2022-11-04T16:10:29;10.20;99.90
19279;DHT22;9773;47.062;15.446;2022-11-04T16:13:02;10.10;99.90
19279;DHT22;9773;47.062;15.446;2022-11-04T16:15:44;10.20;99.90
19279;DHT22;9773;47.062;15.446;2022-11-04T16:21:27;10.10;99.90
19279;DHT22;9773;47.062;15.446;2022-11-04T16:24:02;10.20;99.90
19279;DHT22;9773;47.062;15.446;2022-11-04T16:26:35;10.10;99.90
19279;DHT22;9773;47.062;15.446;2022-11-04T16:29:07;10.00;99.90
19279;DHT22;9773;47.062;15.446;2022-11-04T16:31:36;10.00;99.90
19279;DHT22;9773;47.062;15.446;2022-11-04T16:34:08;10.10;99.90
19279;DHT22;9773;47.062;15.446;2022-11-04T16:36:35;10.10;99.90
19279;DHT22;9773;47.062;15.446;2022-11-04T16:39:03;10.00;99.90
19279;DHT22;9773;47.062;15.446;2022-11-04T16:41:39;10.00;99.90
19279;DHT22;9773;47.062;15.446;2022-11-04T16:44:17;10.00;99.90
19279;DHT22;9773;47.062;15.446;2022-11-04T16:46:45;9.90;99.90
19279;DHT22;9773;47.062;15.446;2022-11-04T16:49:19;9.90;99.90
19279;DHT22;9773;47.062;15.446;2022-11-04T16:51:50;9.90;99.90
19279;DHT22;9773;47.062;15.446;2022-11-04T16:54:21;9.90;99.90
19279;DHT22;9773;47.062;15.446;2022-11-04T16:56:49;10.00;99.90
19279;DHT22;9773;47.062;15.446;2022-11-04T16:59:16;10.00;99.90
19279;DHT22;9773;47.062;15.446;2022-11-04T17:01:43;10.10;99.90
19279;DHT22;9773;47.062;15.446;2022-11-04T17:04:11;10.00;99.90
19279;DHT22;9773;47.062;15.446;2022-11-04T17:06:37;10.10;99.90
19279;DHT22;9773;47.062;15.446;2022-11-04T17:09:05;10.10;99.90
19279;DHT22;9773;47.062;15.446;2022-11-04T17:11:35;10.10;99.90
19279;DHT22;9773;47.062;15.446;2022-11-04T17:14:02;10.10;99.90
19279;DHT22;9773;47.062;15.446;2022-11-04T17:16:28;10.10;99.90
19279;DHT22;9773;47.062;15.446;2022-11-04T17:18:56;10.20;99.90
19279;DHT22;9773;47.062;15.446;2022-11-04T17:21:25;10.10;99.90
19279;DHT22;9773;47.062;15.446;2022-11-04T17:23:52;10.10;99.90
19279;DHT22;9773;47.062;15.446;2022-11-04T17:26:20;10.20;99.90
19279;DHT22;9773;47.062;15.446;2022-11-04T17:28:47;10.20;99.90
19279;DHT22;9773;47.062;15.446;2022-11-04T17:31:17;10.20;99.90
19279;DHT22;9773;47.062;15.446;2022-11-04T17:33:44;10.30;99.90
19279;DHT22;9773;47.062;15.446;2022-11-04T17:36:32;10.20;99.90
19279;DHT22;9773;47.062;15.446;2022-11-04T17:39:02;10.10;99.90
19279;DHT22;9773;47.062;15.446;2022-11-04T17:41:32;10.00;99.90
19279;DHT22;9773;47.062;15.446;2022-11-04T17:44:16;10.00;99.90
19279;DHT22;9773;47.062;15.446;2022-11-04T17:47:11;10.00;99.90
19279;DHT22;9773;47.062;15.446;2022-11-04T17:49:37;9.90;99.90
19279;DHT22;9773;47.062;15.446;2022-11-04T17:52:04;9.80;99.90
19279;DHT22;9773;47.062;15.446;2022-11-04T17:54:30;9.90;99.90
19279;DHT22;9773;47.062;15.446;2022-11-04T17:56:57;9.90;99.90
19279;DHT22;9773;47.062;15.446;2022-11-04T17:59:28;9.90;99.90
19279;DHT22;9773;47.062;15.446;2022-11-04T18:01:54;9.90;99.90
19279;DHT22;9773;47.062;15.446;2022-11-04T18:04:21;9.90;99.90
19279;DHT22;9773;47.062;15.446;2022-11-04T18:09:27;9.90;99.90
19279;DHT22;9773;47.062;15.446;2022-11-04T18:17:01;9.90;99.90
19279;DHT22;9773;47.062;15.446;2022-11-04T18:19:28;9.90;99.90
19279;DHT22;9773;47.062;15.446;2022-11-04T18:21:56;10.00;99.90
19279;DHT22;9773;47.062;15.446;2022-11-04T18:24:26;10.00;99.90
19279;DHT22;9773;47.062;15.446;2022-11-04T18:30:14;10.10;99.90
19279;DHT22;9773;47.062;15.446;2022-11-04T18:32:55;10.10;99.90
19279;DHT22;9773;47.062;15.446;2022-11-04T18:50:46;10.10;99.90
19279;DHT22;9773;47.062;15.446;2022-11-04T18:53:14;10.10;99.90
19279;DHT22;9773;47.062;15.446;2022-11-04T18:55:43;10.10;99.90
19279;DHT22;9773;47.062;15.446;2022-11-04T18:58:11;10.10;99.90
19279;DHT22;9773;47.062;15.446;2022-11-04T19:00:39;10.10;99.90
19279;DHT22;9773;47.062;15.446;2022-11-04T19:05:33;10.10;99.90
19279;DHT22;9773;47.062;15.446;2022-11-04T19:08:06;10.10;99.90
19279;DHT22;9773;47.062;15.446;2022-11-04T19:10:40;10.10;99.90
19279;DHT22;9773;47.062;15.446;2022-11-04T19:13:07;10.00;99.90
19279;DHT22;9773;47.062;15.446;2022-11-04T19:16:08;10.00;99.90
19279;DHT22;9773;47.062;15.446;2022-11-04T19:18:37;10.00;99.90
19279;DHT22;9773;47.062;15.446;2022-11-04T19:23:47;10.00;99.90
19279;DHT22;9773;47.062;15.446;2022-11-04T19:27:00;10.00;99.90
19279;DHT22;9773;47.062;15.446;2022-11-04T19:29:33;10.00;99.90
19279;DHT22;9773;47.062;15.446;2022-11-04T19:32:07;10.00;99.90
19279;DHT22;9773;47.062;15.446;2022-11-04T19:34:55;10.00;99.90
19279;DHT22;9773;47.062;15.446;2022-11-04T19:37:39;10.00;99.90
19279;DHT22;9773;47.062;15.446;2022-11-04T19:40:05;10.00;99.90